sensor_id;sensor_type;location;lat;lon;timestamp;temperature;humidity
21163;DHT22;10739;52.198;20.908;2023-10-31T00:02:19;10.80;99.90
21163;DHT22;10739;52.198;20.908;2023-10-31T00:04:45;10.80;99.90
21163;DHT22;10739;52.198;20.908;2023-10-31T00:07:12;10.80;99.90
21163;DHT22;10739;52.198;20.908;2023-10-31T00:09:38;10.80;99.90
21163;DHT22;10739;52.198;20.908;2023-10-31T00:12:05;10.80;99.90
21163;DHT22;10739;52.198;20.908;2023-10-31T00:14:31;10.70;99.90
21163;DHT22;10739;52.198;20.908;2023-10-31T00:16:58;10.70;99.90
21163;DHT22;10739;52.198;20.908;2023-10-31T00:19:25;10.80;99.90
21163;DHT22;10739;52.198;20.908;2023-10-31T00:21:51;10.70;99.90
21163;DHT22;10739;52.198;20.908;2023-10-31T00:24:18;10.80;99.90
21163;DHT22;10739;52.198;20.908;2023-10-31T00:26:44;10.70;99.90
21163;DHT22;10739;52.198;20.908;2023-10-31T00:29:10;10.70;99.90
21163;DHT22;10739;52.198;20.908;2023-10-31T00:31:36;10.70;99.90
21163;DHT22;10739;52.198;20.908;2023-10-31T00:34:07;10.70;99.90
21163;DHT22;10739;52.198;20.908;2023-10-31T00:36:34;10.70;99.90
21163;DHT22;10739;52.198;20.908;2023-10-31T00:39:00;10.80;99.90
21163;DHT22;10739;52.198;20.908;2023-10-31T00:41:26;10.70;99.90
21163;DHT22;10739;52.198;20.908;2023-10-31T00:43:53;10.70;99.90
21163;DHT22;10739;52.198;20.908;2023-10-31T00:46:22;10.70;99.90
21163;DHT22;10739;52.198;20.908;2023-10-31T00:48:48;10.70;99.90
21163;DHT22;10739;52.198;20.908;2023-10-31T00:51:14;10.70;99.90
21163;DHT22;10739;52.198;20.908;2023-10-31T00:53:41;10.70;99.90
21163;DHT22;10739;52.198;20.908;2023-10-31T00:56:07;10.70;99.90
21163;DHT22;10739;52.198;20.908;2023-10-31T00:58:34;10.70;99.90
21163;DHT22;10739;52.198;20.908;2023-10-31T01:01:00;10.70;99.90
21163;DHT22;10739;52.198;20.908;2023-10-31T01:03:26;10.70;99.90
21163;DHT22;10739;52.198;20.908;2023-10-31T01:05:52;10.70;99.90
21163;DHT22;10739;52.198;20.908;2023-10-31T01:08:19;10.70;99.90
21163;DHT22;10739;52.198;20.908;2023-10-31T01:10:46;10.60;99.90
21163;DHT22;10739;52.198;20.908;2023-10-31T01:13:12;10.60;99.90
21163;DHT22;10739;52.198;20.908;2023-10-31T01:15:38;10.60;99.90
21163;DHT22;10739;52.198;20.908;2023-10-31T01:18:04;10.60;99.90
21163;DHT22;10739;52.198;20.908;2023-10-31T01:20:31;10.60;99.90
21163;DHT22;10739;52.198;20.908;2023-10-31T01:22:57;8.30;99.90
21163;DHT22;10739;52.198;20.908;2023-10-31T01:25:23;10.60;99.90
21163;DHT22;10739;52.198;20.908;2023-10-31T01:27:49;10.70;99.90
21163;DHT22;10739;52.198;20.908;2023-10-31T01:30:16;10.70;99.90
21163;DHT22;10739;52.198;20.908;2023-10-31T01:32:42;10.70;99.90
21163;DHT22;10739;52.198;20.908;2023-10-31T01:35:08;10.70;99.90
21163;DHT22;10739;52.198;20.908;2023-10-31T01:37:34;10.70;99.90
21163;DHT22;10739;52.198;20.908;2023-10-31T01:40:01;10.70;99.90
21163;DHT22;10739;52.198;20.908;2023-10-31T01:42:27;10.70;99.90
21163;DHT22;10739;52.198;20.908;2023-10-31T01:44:56;10.70;99.90
21163;DHT22;10739;52.198;20.908;2023-10-31T01:47:22;10.70;99.90
21163;DHT22;10739;52.198;20.908;2023-10-31T01:49:51;10.70;99.90
21163;DHT22;10739;52.198;20.908;2023-10-31T01:52:18;10.70;99.90
21163;DHT22;10739;52.198;20.908;2023-10-31T01:54:44;10.70;99.90
21163;DHT22;10739;52.198;20.908;2023-10-31T01:57:11;10.70;99.90
21163;DHT22;10739;52.198;20.908;2023-10-31T01:59:37;10.70;99.90
21163;DHT22;10739;52.198;20.908;2023-10-31T02:02:05;10.70;99.90
21163;DHT22;10739;52.198;20.908;2023-10-31T02:04:31;10.70;99.90
21163;DHT22;10739;52.198;20.908;2023-10-31T02:06:58;10.70;99.90
21163;DHT22;10739;52.198;20.908;2023-10-31T02:09:24;10.80;99.90
21163;DHT22;10739;52.198;20.908;2023-10-31T02:11:52;10.80;99.90
21163;DHT22;10739;52.198;20.908;2023-10-31T02:14:19;10.80;99.90
21163;DHT22;10739;52.198;20.908;2023-10-31T02:16:47;10.90;99.90
21163;DHT22;10739;52.198;20.908;2023-10-31T02:19:18;10.90;99.90
21163;DHT22;10739;52.198;20.908;2023-10-31T02:21:45;10.90;99.90
21163;DHT22;10739;52.198;20.908;2023-10-31T02:24:11;11.00;99.90
21163;DHT22;10739;52.198;20.908;2023-10-31T02:26:37;11.00;99.90
21163;DHT22;10739;52.198;20.908;2023-10-31T02:29:03;11.00;99.90
21163;DHT22;10739;52.198;20.908;2023-10-31T02:31:30;11.10;99.90
21163;DHT22;10739;52.198;20.908;2023-10-31T02:33:56;11.10;99.90
21163;DHT22;10739;52.198;20.908;2023-10-31T02:36:22;11.10;99.90
21163;DHT22;10739;52.198;20.908;2023-10-31T02:38:49;11.20;99.90
21163;DHT22;10739;52.198;20.908;2023-10-31T02:41:15;11.20;99.90
21163;DHT22;10739;52.198;20.908;2023-10-31T02:43:41;11.20;99.90
21163;DHT22;10739;52.198;20.908;2023-10-31T02:46:08;11.30;99.90
21163;DHT22;10739;52.198;20.908;2023-10-31T02:48:36;11.30;99.90
21163;DHT22;10739;52.198;20.908;2023-10-31T02:51:06;11.30;99.90
21163;DHT22;10739;52.198;20.908;2023-10-31T02:53:34;11.40;99.90
21163;DHT22;10739;52.198;20.908;2023-10-31T02:56:01;11.40;99.90
21163;DHT22;10739;52.198;20.908;2023-10-31T02:58:28;11.30;99.90
21163;DHT22;10739;52.198;20.908;2023-10-31T03:00:54;11.40;99.90
21163;DHT22;10739;52.198;20.908;2023-10-31T03:03:20;11.40;99.90
21163;DHT22;10739;52.198;20.908;2023-10-31T03:05:47;11.40;99.90
21163;DHT22;10739;52.198;20.908;2023-10-31T03:08:13;11.50;99.90
21163;DHT22;10739;52.198;20.908;2023-10-31T03:10:41;11.50;99.90
21163;DHT22;10739;52.198;20.908;2023-10-31T03:13:07;11.50;99.90
21163;DHT22;10739;52.198;20.908;2023-10-31T03:15:34;11.60;99.90
21163;DHT22;10739;52.198;20.908;2023-10-31T03:18:00;11.60;99.90
21163;DHT22;10739;52.198;20.908;2023-10-31T03:20:26;11.60;99.90
21163;DHT22;10739;52.198;20.908;2023-10-31T03:22:52;11.60;99.90
21163;DHT22;10739;52.198;20.908;2023-10-31T03:25:18;11.60;99.90
21163;DHT22;10739;52.198;20.908;2023-10-31T03:27:46;11.70;99.90
21163;DHT22;10739;52.198;20.908;2023-10-31T03:30:12;11.70;99.90
21163;DHT22;10739;52.198;20.908;2023-10-31T03:32:39;11.70;99.90
21163;DHT22;10739;52.198;20.908;2023-10-31T03:35:06;11.70;99.90
21163;DHT22;10739;52.198;20.908;2023-10-31T03:37:32;11.70;99.90
21163;DHT22;10739;52.198;20.908;2023-10-31T03:39:59;11.80;99.90
21163;DHT22;10739;52.198;20.908;2023-10-31T03:42:25;11.80;99.90
21163;DHT22;10739;52.198;20.908;2023-10-31T03:44:51;11.80;99.90
21163;DHT22;10739;52.198;20.908;2023-10-31T03:47:17;11.80;99.90
21163;DHT22;10739;52.198;20.908;2023-10-31T03:49:43;11.90;99.90
21163;DHT22;10739;52.198;20.908;2023-10-31T03:52:09;11.90;99.90
21163;DHT22;10739;52.198;20.908;2023-10-31T03:54:36;11.90;99.90
21163;DHT22;10739;52.198;20.908;2023-10-31T03:57:02;12.00;99.90
21163;DHT22;10739;52.198;20.908;2023-10-31T03:59:28;12.00;99.90
21163;DHT22;10739;52.198;20.908;2023-10-31T04:01:54;12.00;99.90
21163;DHT22;10739;52.198;20.908;2023-10-31T04:04:20;12.10;99.90
21163;DHT22;10739;52.198;20.908;2023-10-31T04:06:47;12.10;99.90
21163;DHT22;10739;52.198;20.908;2023-10-31T04:09:13;12.10;99.90
21163;DHT22;10739;52.198;20.908;2023-10-31T04:11:39;12.20;99.90
21163;DHT22;10739;52.198;20.908;2023-10-31T04:14:07;12.30;99.90
21163;DHT22;10739;52.198;20.908;2023-10-31T04:16:38;12.30;99.90
21163;DHT22;10739;52.198;20.908;2023-10-31T04:19:05;12.30;99.90
21163;DHT22;10739;52.198;20.908;2023-10-31T04:21:32;12.40;99.90
21163;DHT22;10739;52.198;20.908;2023-10-31T04:23:58;12.50;99.90
21163;DHT22;10739;52.198;20.908;2023-10-31T04:26:24;12.50;99.90
21163;DHT22;10739;52.198;20.908;2023-10-31T04:28:50;12.50;99.90
21163;DHT22;10739;52.198;20.908;2023-10-31T04:31:16;12.60;99.90
21163;DHT22;10739;52.198;20.908;2023-10-31T04:33:42;12.60;99.90
21163;DHT22;10739;52.198;20.908;2023-10-31T04:36:09;12.70;99.90
21163;DHT22;10739;52.198;20.908;2023-10-31T04:38:37;12.80;99.90
21163;DHT22;10739;52.198;20.908;2023-10-31T04:41:04;12.80;99.90
21163;DHT22;10739;52.198;20.908;2023-10-31T04:43:30;12.80;99.90
21163;DHT22;10739;52.198;20.908;2023-10-31T04:45:56;12.80;99.90
21163;DHT22;10739;52.198;20.908;2023-10-31T04:48:22;12.80;99.90
21163;DHT22;10739;52.198;20.908;2023-10-31T04:50:49;12.90;99.90
21163;DHT22;10739;52.198;20.908;2023-10-31T04:53:15;12.90;99.90
21163;DHT22;10739;52.198;20.908;2023-10-31T04:55:41;12.90;99.90
21163;DHT22;10739;52.198;20.908;2023-10-31T04:58:08;13.00;99.90
21163;DHT22;10739;52.198;20.908;2023-10-31T05:00:34;13.00;99.90
21163;DHT22;10739;52.198;20.908;2023-10-31T05:03:01;13.10;99.90
21163;DHT22;10739;52.198;20.908;2023-10-31T05:05:28;13.10;99.90
21163;DHT22;10739;52.198;20.908;2023-10-31T05:07:54;13.10;99.90
21163;DHT22;10739;52.198;20.908;2023-10-31T05:10:20;13.10;99.90
21163;DHT22;10739;52.198;20.908;2023-10-31T05:12:46;13.10;99.90
21163;DHT22;10739;52.198;20.908;2023-10-31T05:15:13;13.10;99.90
21163;DHT22;10739;52.198;20.908;2023-10-31T05:17:39;13.20;99.90
21163;DHT22;10739;52.198;20.908;2023-10-31T05:20:05;13.20;99.90
21163;DHT22;10739;52.198;20.908;2023-10-31T05:22:32;13.20;99.90
21163;DHT22;10739;52.198;20.908;2023-10-31T05:24:58;13.20;99.90
21163;DHT22;10739;52.198;20.908;2023-10-31T05:27:24;13.20;99.90
21163;DHT22;10739;52.198;20.908;2023-10-31T05:29:50;13.30;99.90
21163;DHT22;10739;52.198;20.908;2023-10-31T05:32:16;13.30;99.90
21163;DHT22;10739;52.198;20.908;2023-10-31T05:34:42;13.30;99.90
21163;DHT22;10739;52.198;20.908;2023-10-31T05:37:08;13.30;99.90
21163;DHT22;10739;52.198;20.908;2023-10-31T05:39:34;13.30;99.90
21163;DHT22;10739;52.198;20.908;2023-10-31T05:42:03;13.40;99.90
21163;DHT22;10739;52.198;20.908;2023-10-31T05:44:29;13.40;99.90
21163;DHT22;10739;52.198;20.908;2023-10-31T05:46:55;13.40;99.90
21163;DHT22;10739;52.198;20.908;2023-10-31T05:49:22;13.50;99.90
21163;DHT22;10739;52.198;20.908;2023-10-31T05:51:52;13.50;99.90
21163;DHT22;10739;52.198;20.908;2023-10-31T05:54:18;13.50;99.90
21163;DHT22;10739;52.198;20.908;2023-10-31T05:56:45;13.50;99.90
21163;DHT22;10739;52.198;20.908;2023-10-31T05:59:12;13.50;99.90
21163;DHT22;10739;52.198;20.908;2023-10-31T06:01:38;13.50;99.90
21163;DHT22;10739;52.198;20.908;2023-10-31T06:04:05;13.50;99.90
21163;DHT22;10739;52.198;20.908;2023-10-31T06:06:37;13.50;99.90
21163;DHT22;10739;52.198;20.908;2023-10-31T06:09:07;13.50;99.90
21163;DHT22;10739;52.198;20.908;2023-10-31T06:11:34;13.60;99.90
21163;DHT22;10739;52.198;20.908;2023-10-31T06:14:01;13.70;99.90
21163;DHT22;10739;52.198;20.908;2023-10-31T06:16:27;13.70;99.90
21163;DHT22;10739;52.198;20.908;2023-10-31T06:18:53;13.70;99.90
21163;DHT22;10739;52.198;20.908;2023-10-31T06:21:19;13.80;99.90
21163;DHT22;10739;52.198;20.908;2023-10-31T06:23:45;13.80;99.90
21163;DHT22;10739;52.198;20.908;2023-10-31T06:26:12;13.80;99.90
21163;DHT22;10739;52.198;20.908;2023-10-31T06:28:38;13.80;99.90
21163;DHT22;10739;52.198;20.908;2023-10-31T06:31:05;13.70;99.90
21163;DHT22;10739;52.198;20.908;2023-10-31T06:33:31;13.60;99.90
21163;DHT22;10739;52.198;20.908;2023-10-31T06:35:57;13.60;99.90
21163;DHT22;10739;52.198;20.908;2023-10-31T06:38:24;13.60;99.90
21163;DHT22;10739;52.198;20.908;2023-10-31T06:40:50;13.70;99.90
21163;DHT22;10739;52.198;20.908;2023-10-31T06:43:16;13.70;99.90
21163;DHT22;10739;52.198;20.908;2023-10-31T06:45:42;13.70;99.90
21163;DHT22;10739;52.198;20.908;2023-10-31T06:48:09;13.70;99.90
21163;DHT22;10739;52.198;20.908;2023-10-31T06:50:35;13.70;99.90
21163;DHT22;10739;52.198;20.908;2023-10-31T06:53:01;13.70;99.90
21163;DHT22;10739;52.198;20.908;2023-10-31T06:55:27;13.70;99.90
21163;DHT22;10739;52.198;20.908;2023-10-31T06:57:54;13.80;99.90
21163;DHT22;10739;52.198;20.908;2023-10-31T07:00:20;13.80;99.90
21163;DHT22;10739;52.198;20.908;2023-10-31T07:02:46;13.80;99.90
21163;DHT22;10739;52.198;20.908;2023-10-31T07:05:13;13.70;99.90
21163;DHT22;10739;52.198;20.908;2023-10-31T07:07:41;13.70;99.90
21163;DHT22;10739;52.198;20.908;2023-10-31T07:10:07;13.70;99.90
21163;DHT22;10739;52.198;20.908;2023-10-31T07:12:34;13.70;99.90
21163;DHT22;10739;52.198;20.908;2023-10-31T07:15:00;13.70;99.90
21163;DHT22;10739;52.198;20.908;2023-10-31T07:17:26;13.70;99.90
21163;DHT22;10739;52.198;20.908;2023-10-31T07:19:53;13.70;99.90
21163;DHT22;10739;52.198;20.908;2023-10-31T07:22:19;13.80;99.90
21163;DHT22;10739;52.198;20.908;2023-10-31T07:24:45;13.90;99.90
21163;DHT22;10739;52.198;20.908;2023-10-31T07:27:11;13.90;99.90
21163;DHT22;10739;52.198;20.908;2023-10-31T07:29:40;14.00;99.90
21163;DHT22;10739;52.198;20.908;2023-10-31T07:32:08;14.00;99.90
21163;DHT22;10739;52.198;20.908;2023-10-31T07:34:35;14.10;99.90
21163;DHT22;10739;52.198;20.908;2023-10-31T07:37:01;14.10;99.90
21163;DHT22;10739;52.198;20.908;2023-10-31T07:39:28;14.10;99.90
21163;DHT22;10739;52.198;20.908;2023-10-31T07:41:53;14.10;99.90
21163;DHT22;10739;52.198;20.908;2023-10-31T07:44:20;14.10;99.90
21163;DHT22;10739;52.198;20.908;2023-10-31T07:46:46;14.10;99.90
21163;DHT22;10739;52.198;20.908;2023-10-31T07:49:12;14.20;99.90
21163;DHT22;10739;52.198;20.908;2023-10-31T07:51:38;14.20;99.90
21163;DHT22;10739;52.198;20.908;2023-10-31T07:54:05;14.30;99.90
21163;DHT22;10739;52.198;20.908;2023-10-31T07:56:31;14.30;99.90
21163;DHT22;10739;52.198;20.908;2023-10-31T07:58:58;14.30;99.90
21163;DHT22;10739;52.198;20.908;2023-10-31T08:01:25;14.20;99.90
21163;DHT22;10739;52.198;20.908;2023-10-31T08:03:51;14.20;99.90
21163;DHT22;10739;52.198;20.908;2023-10-31T08:06:18;14.20;99.90
21163;DHT22;10739;52.198;20.908;2023-10-31T08:08:45;14.30;99.90
21163;DHT22;10739;52.198;20.908;2023-10-31T08:11:11;14.30;99.90
21163;DHT22;10739;52.198;20.908;2023-10-31T08:13:39;14.30;99.90
21163;DHT22;10739;52.198;20.908;2023-10-31T08:16:07;14.40;99.90
21163;DHT22;10739;52.198;20.908;2023-10-31T08:18:34;14.50;99.90
21163;DHT22;10739;52.198;20.908;2023-10-31T08:21:01;14.60;99.90
21163;DHT22;10739;52.198;20.908;2023-10-31T08:23:29;14.60;99.90
21163;DHT22;10739;52.198;20.908;2023-10-31T08:25:55;14.70;99.90
21163;DHT22;10739;52.198;20.908;2023-10-31T08:28:22;14.80;99.90
21163;DHT22;10739;52.198;20.908;2023-10-31T08:30:48;14.90;99.90
21163;DHT22;10739;52.198;20.908;2023-10-31T08:33:14;15.00;99.90
21163;DHT22;10739;52.198;20.908;2023-10-31T08:35:40;15.20;99.90
21163;DHT22;10739;52.198;20.908;2023-10-31T08:38:08;15.30;99.90
21163;DHT22;10739;52.198;20.908;2023-10-31T08:40:34;15.50;99.90
21163;DHT22;10739;52.198;20.908;2023-10-31T08:43:00;15.60;99.90
21163;DHT22;10739;52.198;20.908;2023-10-31T08:45:27;15.60;99.90
21163;DHT22;10739;52.198;20.908;2023-10-31T08:47:53;15.70;99.90
21163;DHT22;10739;52.198;20.908;2023-10-31T08:50:19;15.80;99.90
21163;DHT22;10739;52.198;20.908;2023-10-31T08:52:45;15.80;99.90
21163;DHT22;10739;52.198;20.908;2023-10-31T08:55:12;15.80;99.90
21163;DHT22;10739;52.198;20.908;2023-10-31T08:57:38;15.80;99.90
21163;DHT22;10739;52.198;20.908;2023-10-31T09:00:05;15.80;99.90
21163;DHT22;10739;52.198;20.908;2023-10-31T09:02:32;15.90;99.90
21163;DHT22;10739;52.198;20.908;2023-10-31T09:04:58;15.80;99.90
21163;DHT22;10739;52.198;20.908;2023-10-31T09:07:24;15.90;99.90
21163;DHT22;10739;52.198;20.908;2023-10-31T09:09:50;15.90;99.90
21163;DHT22;10739;52.198;20.908;2023-10-31T09:12:17;15.80;99.90
21163;DHT22;10739;52.198;20.908;2023-10-31T09:14:43;15.80;99.90
21163;DHT22;10739;52.198;20.908;2023-10-31T09:17:10;15.70;99.90
21163;DHT22;10739;52.198;20.908;2023-10-31T09:19:36;15.70;99.90
21163;DHT22;10739;52.198;20.908;2023-10-31T09:22:02;15.70;99.90
21163;DHT22;10739;52.198;20.908;2023-10-31T09:24:28;15.70;99.90
21163;DHT22;10739;52.198;20.908;2023-10-31T09:26:54;15.70;99.90
21163;DHT22;10739;52.198;20.908;2023-10-31T09:29:20;15.80;99.90
21163;DHT22;10739;52.198;20.908;2023-10-31T09:31:47;15.80;99.90
21163;DHT22;10739;52.198;20.908;2023-10-31T09:34:14;15.80;99.90
21163;DHT22;10739;52.198;20.908;2023-10-31T09:36:40;15.80;99.90
21163;DHT22;10739;52.198;20.908;2023-10-31T09:39:07;15.70;99.90
21163;DHT22;10739;52.198;20.908;2023-10-31T09:41:36;15.70;99.90
21163;DHT22;10739;52.198;20.908;2023-10-31T09:44:03;15.70;99.90
21163;DHT22;10739;52.198;20.908;2023-10-31T09:46:29;15.70;99.90
21163;DHT22;10739;52.198;20.908;2023-10-31T09:48:55;15.80;99.90
21163;DHT22;10739;52.198;20.908;2023-10-31T09:51:22;15.90;99.90
21163;DHT22;10739;52.198;20.908;2023-10-31T09:53:50;15.90;99.90
21163;DHT22;10739;52.198;20.908;2023-10-31T09:56:21;15.90;99.90
21163;DHT22;10739;52.198;20.908;2023-10-31T09:58:48;16.00;99.90
21163;DHT22;10739;52.198;20.908;2023-10-31T10:01:14;16.00;99.90
21163;DHT22;10739;52.198;20.908;2023-10-31T10:03:41;16.20;99.90
21163;DHT22;10739;52.198;20.908;2023-10-31T10:06:08;16.20;99.90
21163;DHT22;10739;52.198;20.908;2023-10-31T10:08:38;16.20;99.90
21163;DHT22;10739;52.198;20.908;2023-10-31T10:11:05;16.20;99.90
21163;DHT22;10739;52.198;20.908;2023-10-31T10:13:32;16.30;99.90
21163;DHT22;10739;52.198;20.908;2023-10-31T10:15:59;16.30;99.90
21163;DHT22;10739;52.198;20.908;2023-10-31T10:18:36;16.40;99.90
21163;DHT22;10739;52.198;20.908;2023-10-31T10:21:07;16.40;99.90
21163;DHT22;10739;52.198;20.908;2023-10-31T10:23:34;16.50;99.90
21163;DHT22;10739;52.198;20.908;2023-10-31T10:26:03;16.60;99.90
21163;DHT22;10739;52.198;20.908;2023-10-31T10:28:29;16.60;99.90
21163;DHT22;10739;52.198;20.908;2023-10-31T10:30:55;16.70;99.90
21163;DHT22;10739;52.198;20.908;2023-10-31T10:33:21;16.70;99.90
21163;DHT22;10739;52.198;20.908;2023-10-31T10:35:48;16.80;99.90
21163;DHT22;10739;52.198;20.908;2023-10-31T10:38:18;16.90;99.90
21163;DHT22;10739;52.198;20.908;2023-10-31T10:40:47;16.90;99.90
21163;DHT22;10739;52.198;20.908;2023-10-31T10:43:25;17.00;99.90
21163;DHT22;10739;52.198;20.908;2023-10-31T10:45:57;17.00;99.90
21163;DHT22;10739;52.198;20.908;2023-10-31T10:48:25;17.10;99.90
21163;DHT22;10739;52.198;20.908;2023-10-31T10:53:55;17.10;99.90
21163;DHT22;10739;52.198;20.908;2023-10-31T10:56:34;17.20;99.90
21163;DHT22;10739;52.198;20.908;2023-10-31T10:59:15;17.30;99.90
21163;DHT22;10739;52.198;20.908;2023-10-31T11:01:46;17.40;99.90
21163;DHT22;10739;52.198;20.908;2023-10-31T11:04:14;17.50;99.90
21163;DHT22;10739;52.198;20.908;2023-10-31T11:06:42;17.50;99.90
21163;DHT22;10739;52.198;20.908;2023-10-31T11:09:10;17.60;99.90
21163;DHT22;10739;52.198;20.908;2023-10-31T11:11:38;17.60;99.90
21163;DHT22;10739;52.198;20.908;2023-10-31T11:14:05;17.60;99.90
21163;DHT22;10739;52.198;20.908;2023-10-31T11:16:44;17.60;99.90
21163;DHT22;10739;52.198;20.908;2023-10-31T11:19:15;17.60;99.90
21163;DHT22;10739;52.198;20.908;2023-10-31T11:22:08;17.60;99.90
21163;DHT22;10739;52.198;20.908;2023-10-31T11:24:39;17.50;99.90
21163;DHT22;10739;52.198;20.908;2023-10-31T11:27:07;17.50;99.90
21163;DHT22;10739;52.198;20.908;2023-10-31T11:29:36;17.50;99.90
21163;DHT22;10739;52.198;20.908;2023-10-31T11:32:03;17.50;99.90
21163;DHT22;10739;52.198;20.908;2023-10-31T11:34:30;17.50;99.90
21163;DHT22;10739;52.198;20.908;2023-10-31T11:40:16;17.40;99.90
21163;DHT22;10739;52.198;20.908;2023-10-31T11:42:53;17.40;99.90
21163;DHT22;10739;52.198;20.908;2023-10-31T11:45:26;17.30;99.90
21163;DHT22;10739;52.198;20.908;2023-10-31T11:47:58;17.30;99.90
21163;DHT22;10739;52.198;20.908;2023-10-31T11:50:24;17.30;99.90
21163;DHT22;10739;52.198;20.908;2023-10-31T11:53:11;17.30;99.90
21163;DHT22;10739;52.198;20.908;2023-10-31T11:55:47;17.20;99.90
21163;DHT22;10739;52.198;20.908;2023-10-31T11:58:20;17.20;99.90
21163;DHT22;10739;52.198;20.908;2023-10-31T12:00:53;17.10;99.90
21163;DHT22;10739;52.198;20.908;2023-10-31T12:03:27;17.10;99.90
21163;DHT22;10739;52.198;20.908;2023-10-31T12:06:01;17.00;99.90
21163;DHT22;10739;52.198;20.908;2023-10-31T12:08:40;17.10;99.90
21163;DHT22;10739;52.198;20.908;2023-10-31T12:11:12;17.10;99.90
21163;DHT22;10739;52.198;20.908;2023-10-31T12:16:19;17.20;99.90
21163;DHT22;10739;52.198;20.908;2023-10-31T12:19:04;17.20;99.90
21163;DHT22;10739;52.198;20.908;2023-10-31T12:21:37;17.20;99.90
21163;DHT22;10739;52.198;20.908;2023-10-31T12:24:06;17.20;99.90
21163;DHT22;10739;52.198;20.908;2023-10-31T12:26:34;17.10;99.90
21163;DHT22;10739;52.198;20.908;2023-10-31T12:29:12;17.20;99.90
21163;DHT22;10739;52.198;20.908;2023-10-31T12:31:47;17.10;99.90
21163;DHT22;10739;52.198;20.908;2023-10-31T12:34:16;17.10;99.90
21163;DHT22;10739;52.198;20.908;2023-10-31T12:36:44;17.10;99.90
21163;DHT22;10739;52.198;20.908;2023-10-31T12:39:12;17.00;99.90
21163;DHT22;10739;52.198;20.908;2023-10-31T12:41:41;16.90;99.90
21163;DHT22;10739;52.198;20.908;2023-10-31T12:44:07;16.70;99.90
21163;DHT22;10739;52.198;20.908;2023-10-31T12:46:41;16.60;99.90
21163;DHT22;10739;52.198;20.908;2023-10-31T12:49:17;16.60;99.90
21163;DHT22;10739;52.198;20.908;2023-10-31T12:52:04;16.50;99.90
21163;DHT22;10739;52.198;20.908;2023-10-31T12:54:36;16.40;99.90
21163;DHT22;10739;52.198;20.908;2023-10-31T12:57:07;16.40;99.90
21163;DHT22;10739;52.198;20.908;2023-10-31T12:59:37;16.40;99.90
21163;DHT22;10739;52.198;20.908;2023-10-31T13:02:06;16.40;99.90
21163;DHT22;10739;52.198;20.908;2023-10-31T13:04:35;16.30;99.90
21163;DHT22;10739;52.198;20.908;2023-10-31T13:07:03;16.30;99.90
21163;DHT22;10739;52.198;20.908;2023-10-31T13:09:37;16.30;99.90
21163;DHT22;10739;52.198;20.908;2023-10-31T13:12:08;16.20;99.90
21163;DHT22;10739;52.198;20.908;2023-10-31T13:14:37;16.20;99.90
21163;DHT22;10739;52.198;20.908;2023-10-31T13:17:05;16.20;99.90
21163;DHT22;10739;52.198;20.908;2023-10-31T13:19:32;16.20;99.90
21163;DHT22;10739;52.198;20.908;2023-10-31T13:21:58;16.20;99.90
21163;DHT22;10739;52.198;20.908;2023-10-31T13:24:24;16.20;99.90
21163;DHT22;10739;52.198;20.908;2023-10-31T13:26:50;16.20;99.90
21163;DHT22;10739;52.198;20.908;2023-10-31T13:29:19;16.20;99.90
21163;DHT22;10739;52.198;20.908;2023-10-31T13:31:45;16.10;99.90
21163;DHT22;10739;52.198;20.908;2023-10-31T13:34:11;16.10;99.90
21163;DHT22;10739;52.198;20.908;2023-10-31T13:36:37;16.10;99.90
21163;DHT22;10739;52.198;20.908;2023-10-31T13:39:04;16.10;99.90
21163;DHT22;10739;52.198;20.908;2023-10-31T13:41:30;16.10;99.90
21163;DHT22;10739;52.198;20.908;2023-10-31T13:43:56;16.10;99.90
21163;DHT22;10739;52.198;20.908;2023-10-31T13:46:22;16.00;99.90
21163;DHT22;10739;52.198;20.908;2023-10-31T13:48:49;16.00;99.90
21163;DHT22;10739;52.198;20.908;2023-10-31T13:51:16;15.90;99.90
21163;DHT22;10739;52.198;20.908;2023-10-31T13:53:42;16.00;99.90
21163;DHT22;10739;52.198;20.908;2023-10-31T13:56:09;15.90;99.90
21163;DHT22;10739;52.198;20.908;2023-10-31T13:58:36;15.90;99.90
21163;DHT22;10739;52.198;20.908;2023-10-31T14:01:02;16.00;99.90
21163;DHT22;10739;52.198;20.908;2023-10-31T14:03:28;15.90;99.90
21163;DHT22;10739;52.198;20.908;2023-10-31T14:05:54;15.80;99.90
21163;DHT22;10739;52.198;20.908;2023-10-31T14:08:21;15.80;99.90
21163;DHT22;10739;52.198;20.908;2023-10-31T14:10:47;15.90;99.90
21163;DHT22;10739;52.198;20.908;2023-10-31T14:13:14;16.00;99.90
21163;DHT22;10739;52.198;20.908;2023-10-31T14:15:41;15.90;99.90
21163;DHT22;10739;52.198;20.908;2023-10-31T14:18:07;15.80;99.90
21163;DHT22;10739;52.198;20.908;2023-10-31T14:20:33;15.80;99.90
21163;DHT22;10739;52.198;20.908;2023-10-31T14:23:00;15.70;99.90
21163;DHT22;10739;52.198;20.908;2023-10-31T14:25:26;15.70;99.90
21163;DHT22;10739;52.198;20.908;2023-10-31T14:27:52;15.70;99.90
21163;DHT22;10739;52.198;20.908;2023-10-31T14:30:18;15.70;99.90
21163;DHT22;10739;52.198;20.908;2023-10-31T14:32:44;15.60;99.90
21163;DHT22;10739;52.198;20.908;2023-10-31T14:35:10;15.60;99.90
21163;DHT22;10739;52.198;20.908;2023-10-31T14:37:37;15.60;99.90
21163;DHT22;10739;52.198;20.908;2023-10-31T14:40:03;15.50;99.90
21163;DHT22;10739;52.198;20.908;2023-10-31T14:42:29;15.50;99.90
21163;DHT22;10739;52.198;20.908;2023-10-31T14:44:56;15.40;99.90
21163;DHT22;10739;52.198;20.908;2023-10-31T14:47:23;15.40;99.90
21163;DHT22;10739;52.198;20.908;2023-10-31T14:49:49;15.30;99.90
21163;DHT22;10739;52.198;20.908;2023-10-31T14:52:15;15.30;99.90
21163;DHT22;10739;52.198;20.908;2023-10-31T14:54:42;15.20;99.90
21163;DHT22;10739;52.198;20.908;2023-10-31T14:57:09;15.10;99.90
21163;DHT22;10739;52.198;20.908;2023-10-31T14:59:35;15.10;99.90
21163;DHT22;10739;52.198;20.908;2023-10-31T15:02:01;15.00;99.90
21163;DHT22;10739;52.198;20.908;2023-10-31T15:04:27;15.00;99.90
21163;DHT22;10739;52.198;20.908;2023-10-31T15:06:54;15.00;99.90
21163;DHT22;10739;52.198;20.908;2023-10-31T15:09:20;14.90;99.90
21163;DHT22;10739;52.198;20.908;2023-10-31T15:11:46;14.90;99.90
21163;DHT22;10739;52.198;20.908;2023-10-31T15:14:13;14.80;99.90
21163;DHT22;10739;52.198;20.908;2023-10-31T15:16:40;14.80;99.90
21163;DHT22;10739;52.198;20.908;2023-10-31T15:19:07;14.70;99.90
21163;DHT22;10739;52.198;20.908;2023-10-31T15:21:33;14.70;99.90
21163;DHT22;10739;52.198;20.908;2023-10-31T15:23:59;14.60;99.90
21163;DHT22;10739;52.198;20.908;2023-10-31T15:26:25;14.60;99.90